Time;durP1;ratioP1;P1;durP2;ratioP2;P2;SDS_P1;SDS_P2;PMS_P1;PMS_P2;Temp;Humidity;BMP_temperature;BMP_pressure;BME280_temperature;BME280_humidity;BME280_pressure;Samples;Min_cycle;Max_cycle;Signal;HPM_P1;HPM_P2
2021/04/12 00:01:09;;;;;;;15.43;11.50;;;;;;;2.36;100.00;100944.19;5012937;28;20200;-70
2021/04/12 00:03:47;;;;;;;18.73;11.63;;;;;;;2.30;100.00;100930.25;5012777;28;20171;-70
2021/04/12 00:06:18;;;;;;;18.57;11.60;;;;;;;2.33;100.00;100930.19;5012986;28;20245;-70
2021/04/12 00:09:05;;;;;;;16.30;11.83;;;;;;;2.38;100.00;100941.53;5013195;28;20163;-71
2021/04/12 00:11:43;;;;;;;12.60;10.47;;;;;;;2.41;100.00;100947.59;5013919;28;20218;-70
2021/04/12 00:14:17;;;;;;;16.47;10.43;;;;;;;2.34;100.00;100953.00;5012906;28;20178;-70
2021/04/12 00:16:53;;;;;;;13.53;10.53;;;;;;;2.36;100.00;100954.72;5013373;28;20157;-70
2021/04/12 00:19:29;;;;;;;13.67;10.60;;;;;;;2.33;100.00;100943.38;5012936;28;20159;-71
2021/04/12 00:22:06;;;;;;;14.07;10.57;;;;;;;2.36;100.00;100946.81;5012194;28;20199;-71
2021/04/12 00:24:43;;;;;;;12.77;10.03;;;;;;;2.33;100.00;100948.66;4996016;28;20267;-71
2021/04/12 00:27:22;;;;;;;12.80;10.03;;;;;;;2.29;100.00;100946.97;5013962;28;20163;-70
2021/04/12 00:29:54;;;;;;;13.53;10.03;;;;;;;2.24;99.41;100951.44;5012680;28;20545;-70
2021/04/12 00:32:31;;;;;;;14.83;9.83;;;;;;;2.22;99.81;100940.91;5012896;28;20192;-69
2021/04/12 00:35:15;;;;;;;14.87;10.47;;;;;;;2.10;100.00;100936.72;5012652;28;20166;-69
2021/04/12 00:37:54;;;;;;;13.77;10.53;;;;;;;2.17;100.00;100942.75;5012546;28;20271;-69
2021/04/12 00:40:42;;;;;;;12.13;9.70;;;;;;;2.08;100.00;100951.69;5012259;28;20204;-70
2021/04/12 00:43:33;;;;;;;12.00;9.83;;;;;;;2.19;100.00;100967.28;5014289;28;20532;-70
2021/04/12 00:46:03;;;;;;;12.90;9.53;;;;;;;2.16;100.00;100973.47;4982893;28;20254;-70
2021/04/12 00:48:41;;;;;;;11.60;9.70;;;;;;;2.14;100.00;100967.38;5012244;28;20187;-70
2021/04/12 00:51:40;;;;;;;12.27;9.57;;;;;;;2.17;100.00;100969.09;5012092;28;20592;-70
2021/04/12 00:54:30;;;;;;;10.83;9.00;;;;;;;2.10;100.00;100977.97;5012073;28;20266;-70
2021/04/12 00:57:07;;;;;;;9.90;8.43;;;;;;;2.14;100.00;100996.34;5013836;28;20183;-70
2021/04/12 00:59:46;;;;;;;12.33;9.07;;;;;;;2.16;100.00;100989.28;5012355;28;20182;-70
2021/04/12 01:02:29;;;;;;;12.87;8.97;;;;;;;2.18;100.00;100984.84;5011914;28;20174;-70
2021/04/12 01:05:04;;;;;;;11.30;9.27;;;;;;;2.17;100.00;100991.03;5013039;28;20187;-70
2021/04/12 01:07:29;;;;;;;10.33;8.13;;;;;;;2.15;100.00;100995.44;5012346;28;20168;-71
2021/04/12 01:10:25;;;;;;;13.03;7.97;;;;;;;2.13;100.00;100993.72;5028188;28;20585;-70
2021/04/12 01:13:23;;;;;;;11.33;8.27;;;;;;;2.17;100.00;100998.91;5012216;28;20171;-71
2021/04/12 01:15:54;;;;;;;12.77;8.90;;;;;;;2.09;100.00;101018.38;5011308;28;20194;-70
2021/04/12 01:18:30;;;;;;;11.00;8.80;;;;;;;2.09;100.00;101006.06;5013014;28;20658;-70
2021/04/12 01:21:26;;;;;;;10.17;8.27;;;;;;;2.09;100.00;101003.44;5012943;28;20206;-69
2021/04/12 01:24:27;;;;;;;11.43;8.13;;;;;;;2.05;100.00;101019.31;5028127;28;20179;-69
2021/04/12 01:27:21;;;;;;;10.70;8.47;;;;;;;2.04;100.00;101023.72;5011882;28;20210;-69
2021/04/12 01:30:29;;;;;;;10.77;8.53;;;;;;;2.04;100.00;101022.84;5011967;28;20171;-69
2021/04/12 01:33:06;;;;;;;12.53;8.80;;;;;;;2.03;100.00;101032.50;4996355;28;20548;-69
2021/04/12 01:36:05;;;;;;;10.63;8.53;;;;;;;2.08;100.00;101032.44;5016887;28;20553;-70
2021/04/12 01:38:38;;;;;;;11.50;8.70;;;;;;;2.06;100.00;101029.81;5031774;28;20193;-71
2021/04/12 01:41:33;;;;;;;12.80;9.03;;;;;;;2.06;100.00;101031.59;5015556;28;20222;-69
2021/04/12 01:44:19;;;;;;;10.23;8.43;;;;;;;2.02;100.00;101025.50;5015455;28;20205;-71
2021/04/12 01:47:01;;;;;;;10.87;7.90;;;;;;;2.04;100.00;101031.59;5015410;28;20207;-70
2021/04/12 01:49:55;;;;;;;9.33;7.63;;;;;;;2.02;100.00;101032.53;5015622;28;20183;-69
2021/04/12 01:52:42;;;;;;;11.27;8.47;;;;;;;2.04;100.00;101031.59;5012488;28;20238;-70
2021/04/12 01:55:11;;;;;;;10.93;8.10;;;;;;;2.09;100.00;101035.03;5015685;28;20709;-70
2021/04/12 01:58:10;;;;;;;13.17;9.33;;;;;;;2.01;100.00;101039.56;5016366;28;20175;-71
2021/04/12 02:00:47;;;;;;;10.77;8.63;;;;;;;2.06;100.00;101045.63;5015729;28;20270;-70
2021/04/12 02:03:27;;;;;;;11.80;8.37;;;;;;;2.08;100.00;101054.38;5017234;28;20173;-71
2021/04/12 02:06:07;;;;;;;9.53;8.00;;;;;;;2.11;100.00;101058.72;5015450;28;20200;-69
2021/04/12 02:08:50;;;;;;;10.30;8.57;;;;;;;2.15;100.00;101057.78;5033024;28;20178;-70
2021/04/12 02:11:33;;;;;;;10.13;8.47;;;;;;;2.14;100.00;101070.06;5015119;28;20534;-70
2021/04/12 02:14:18;;;;;;;10.90;7.97;;;;;;;2.14;100.00;101062.16;5017080;28;20296;-70
2021/04/12 02:16:59;;;;;;;9.87;8.30;;;;;;;2.17;100.00;101070.03;5014733;28;20173;-70
2021/04/12 02:19:43;;;;;;;12.63;7.90;;;;;;;2.21;100.00;101073.47;5015651;28;20241;-70
2021/04/12 02:22:53;;;;;;;10.57;8.10;;;;;;;2.15;100.00;101071.81;5016229;28;20190;-70
2021/04/12 02:25:23;;;;;;;11.93;7.77;;;;;;;2.15;100.00;101092.00;4999066;28;20233;-70
2021/04/12 02:27:59;;;;;;;10.97;8.07;;;;;;;2.14;100.00;101088.50;5014846;28;20167;-70
2021/04/12 02:30:51;;;;;;;8.87;7.63;;;;;;;2.08;100.00;101085.09;5015805;28;20207;-70
2021/04/12 02:33:25;;;;;;;10.50;8.00;;;;;;;2.09;100.00;101073.66;5015976;28;20163;-69
2021/04/12 02:36:12;;;;;;;8.73;7.60;;;;;;;2.06;100.00;101077.22;5014497;28;20204;-69
2021/04/12 02:39:15;;;;;;;10.60;7.60;;;;;;;2.04;100.00;101084.25;5014514;28;20229;-69
2021/04/12 02:41:49;;;;;;;8.43;7.30;;;;;;;2.07;100.00;101084.22;5015365;28;20606;-70
2021/04/12 02:44:30;;;;;;;10.27;7.40;;;;;;;2.02;100.00;101083.41;5013793;28;20167;-69
2021/04/12 02:47:20;;;;;;;7.90;7.10;;;;;;;1.97;100.00;101102.81;5014318;28;20671;-69
2021/04/12 02:50:05;;;;;;;10.63;6.97;;;;;;;1.96;100.00;101099.31;5015608;28;20503;-69
2021/04/12 02:52:55;;;;;;;8.57;6.40;;;;;;;1.99;100.00;101099.25;5004533;28;20195;-69
2021/04/12 02:55:42;;;;;;;10.67;6.73;;;;;;;1.96;100.00;101098.44;5030329;28;20189;-69
2021/04/12 02:58:28;;;;;;;10.60;7.50;;;;;;;1.95;100.00;101097.56;5013992;28;20176;-70
2021/04/12 03:01:22;;;;;;;10.97;7.20;;;;;;;1.96;100.00;101107.19;5013836;28;20676;-70
2021/04/12 03:04:04;;;;;;;8.70;7.37;;;;;;;1.97;100.00;101100.16;5013777;28;20572;-70
2021/04/12 03:06:46;;;;;;;9.03;6.33;;;;;;;1.91;100.00;101100.25;5013772;28;20294;-70
2021/04/12 03:09:36;;;;;;;9.20;6.50;;;;;;;1.90;100.00;101102.03;5014825;28;20171;-70
2021/04/12 03:12:24;;;;;;;7.13;5.50;;;;;;;1.84;100.00;101107.34;5015208;28;20226;-70
2021/04/12 03:14:58;;;;;;;8.07;6.40;;;;;;;1.84;100.00;101120.50;5013823;28;20171;-70
2021/04/12 03:17:35;;;;;;;9.30;6.20;;;;;;;1.78;100.00;101117.94;4997284;28;20551;-69
2021/04/12 03:22:51;;;;;;;7.83;5.93;;;;;;;1.74;100.00;101121.50;5054935;23;20234;-70
2021/04/12 03:25:30;;;;;;;9.53;6.97;;;;;;;1.72;100.00;101115.41;5034760;28;20719;-71
2021/04/12 03:28:25;;;;;;;8.77;6.03;;;;;;;1.76;100.00;101130.25;5033386;28;20646;-71
2021/04/12 03:31:21;;;;;;;6.90;5.53;;;;;;;1.73;100.00;101146.94;5033127;28;20220;-71
2021/04/12 03:34:09;;;;;;;6.13;4.70;;;;;;;1.68;100.00;101148.78;5033560;28;20161;-72
2021/04/12 03:36:54;;;;;;;5.33;4.50;;;;;;;1.64;100.00;101147.06;5033472;28;20249;-71
2021/04/12 03:39:23;;;;;;;5.57;4.77;;;;;;;1.70;99.84;101146.13;5033467;28;20167;-71
2021/04/12 03:42:13;;;;;;;6.00;4.50;;;;;;;1.65;99.18;101147.94;5033070;28;20194;-70
2021/04/12 03:44:48;;;;;;;6.93;4.20;;;;;;;1.63;99.52;101139.19;5034275;28;20198;-71
2021/04/12 03:47:28;;;;;;;7.73;4.60;;;;;;;1.68;99.50;101145.28;5033192;28;20514;-71
2021/04/12 03:50:11;;;;;;;6.13;4.63;;;;;;;1.54;99.62;101141.03;5034869;28;20201;-72
2021/04/12 03:53:18;;;;;;;8.10;4.37;;;;;;;1.59;99.84;101148.00;5017047;28;20202;-72
2021/04/12 03:55:51;;;;;;;5.63;4.10;;;;;;;1.54;99.62;101150.69;5016885;28;20174;-71
2021/04/12 03:58:19;;;;;;;5.73;4.60;;;;;;;1.54;100.00;101146.31;5034221;28;20213;-71
2021/04/12 04:01:15;;;;;;;7.17;4.43;;;;;;;1.48;100.00;101159.50;5032636;28;20203;-71
2021/04/12 04:04:07;;;;;;;7.83;4.10;;;;;;;1.55;100.00;101162.97;5032778;28;20193;-71
2021/04/12 04:07:17;;;;;;;6.20;4.00;;;;;;;1.49;100.00;101169.16;5033676;28;20256;-70
2021/04/12 04:10:16;;;;;;;4.93;4.10;;;;;;;1.61;100.00;101183.06;4990257;28;20552;-71
2021/04/12 04:13:19;;;;;;;6.00;3.47;;;;;;;1.49;99.61;101177.06;5032567;28;20164;-71
2021/04/12 04:16:06;;;;;;;8.63;3.87;;;;;;;1.57;99.68;101182.22;5033658;28;20208;-70
2021/04/12 04:18:37;;;;;;;4.60;3.33;;;;;;;1.52;98.99;101171.75;5032915;28;20256;-72
2021/04/12 04:21:09;;;;;;;6.30;3.90;;;;;;;1.50;99.71;101176.16;5032774;28;20219;-72
2021/04/12 04:23:52;;;;;;;7.13;3.80;;;;;;;1.45;99.30;101188.47;5033828;28;20629;-72
2021/04/12 04:26:47;;;;;;;5.90;3.67;;;;;;;1.53;99.54;101180.53;5033755;28;20276;-72
2021/04/12 04:29:43;;;;;;;10.90;3.80;;;;;;;1.55;99.38;101184.88;5032437;28;20179;-72
2021/04/12 04:32:22;;;;;;;5.53;3.40;;;;;;;1.53;100.00;101191.06;5032100;28;20201;-73
2021/04/12 04:35:04;;;;;;;7.10;3.63;;;;;;;1.53;98.77;101191.06;5032894;28;20241;-73
2021/04/12 04:37:52;;;;;;;7.67;3.40;;;;;;;1.51;99.36;101180.53;5033010;28;20170;-72
2021/04/12 04:40:53;;;;;;;9.13;3.83;;;;;;;1.47;99.32;101197.22;5033628;28;20749;-71
2021/04/12 04:43:38;;;;;;;4.67;3.57;;;;;;;1.58;98.80;101205.03;5032596;28;20252;-72
2021/04/12 04:46:36;;;;;;;4.03;3.13;;;;;;;1.55;98.79;101205.94;5032399;28;20210;-71
2021/04/12 04:49:28;;;;;;;4.40;3.40;;;;;;;1.56;98.34;101206.81;5032048;28;20725;-72
2021/04/12 04:52:17;;;;;;;6.57;3.47;;;;;;;1.53;99.28;101210.34;5033183;28;20291;-71
2021/04/12 04:54:47;;;;;;;7.17;3.30;;;;;;;1.62;98.67;101216.38;5033746;28;20200;-71
2021/04/12 04:57:32;;;;;;;6.67;3.37;;;;;;;1.69;97.81;101218.94;5032222;28;20177;-72
2021/04/12 05:00:42;;;;;;;3.53;2.63;;;;;;;1.76;97.42;101222.38;5032935;28;20166;-71
2021/04/12 05:03:39;;;;;;;4.93;2.90;;;;;;;1.67;97.01;101225.09;5010416;28;20237;-72
2021/04/12 05:06:19;;;;;;;4.93;3.10;;;;;;;1.77;96.75;101226.75;5015333;28;20286;-71
2021/04/12 05:09:08;;;;;;;4.40;2.97;;;;;;;1.85;95.55;101231.03;5034896;28;20170;-71
2021/04/12 05:11:55;;;;;;;5.47;2.47;;;;;;;2.02;94.32;101240.53;5019967;28;20697;-72
2021/04/12 05:14:35;;;;;;;6.13;2.63;;;;;;;1.94;93.82;101245.00;5037039;28;20176;-72
2021/04/12 05:17:03;;;;;;;3.00;2.63;;;;;;;1.92;94.59;101250.28;5036380;28;20219;-72
2021/04/12 05:20:00;;;;;;;5.03;2.57;;;;;;;2.03;92.02;101258.94;5037052;28;20179;-71
2021/04/12 05:22:34;;;;;;;3.73;2.33;;;;;;;1.99;90.35;101267.75;5035495;28;20207;-71
2021/04/12 05:25:10;;;;;;;3.93;2.30;;;;;;;2.17;87.92;101259.63;5035944;28;20171;-70
2021/04/12 05:27:55;;;;;;;4.97;2.43;;;;;;;2.32;87.04;101279.66;5035747;28;20189;-70
2021/04/12 05:30:42;;;;;;;2.67;2.13;;;;;;;2.43;84.93;101274.25;5035859;28;20187;-71
2021/04/12 05:33:29;;;;;;;3.60;2.17;;;;;;;2.39;85.78;101272.56;5036788;28;20163;-71
2021/04/12 05:36:18;;;;;;;3.10;1.77;;;;;;;2.55;82.62;101281.13;5037132;28;20179;-71
2021/04/12 05:39:08;;;;;;;3.40;1.80;;;;;;;2.58;80.67;101289.00;5037567;28;20232;-71
2021/04/12 05:41:40;;;;;;;2.60;1.43;;;;;;;2.49;79.65;101276.81;5035878;28;20611;-71
2021/04/12 05:44:12;;;;;;;3.77;1.67;;;;;;;2.59;77.85;101277.56;5039291;28;20642;-72
2021/04/12 05:47:15;;;;;;;2.60;1.43;;;;;;;2.73;78.25;101294.97;5039005;28;20199;-72
2021/04/12 05:49:58;;;;;;;1.30;1.20;;;;;;;2.82;77.35;101300.09;5037539;28;20598;-72
2021/04/12 05:52:46;;;;;;;2.03;1.43;;;;;;;2.97;77.49;101313.94;5035838;28;20229;-72
2021/04/12 05:55:18;;;;;;;5.10;1.50;;;;;;;2.98;75.52;101305.16;5035416;28;20179;-72
2021/04/12 05:58:05;;;;;;;4.60;1.40;;;;;;;3.01;75.52;101307.75;5036596;28;20202;-71
2021/04/12 06:00:33;;;;;;;1.30;1.17;;;;;;;3.02;76.11;101328.84;5036326;28;20195;-72
2021/04/12 06:03:12;;;;;;;3.33;1.50;;;;;;;3.23;75.60;101338.19;5036617;28;20566;-71
2021/04/12 06:06:08;;;;;;;1.77;1.20;;;;;;;3.26;75.78;101340.78;5035285;28;20254;-72
2021/04/12 06:08:49;;;;;;;2.40;1.50;;;;;;;3.33;75.66;101341.56;5036375;28;20180;-71
2021/04/12 06:12:01;;;;;;;5.20;1.60;;;;;;;3.24;76.00;101339.06;5034760;28;20308;-72
2021/04/12 06:14:48;;;;;;;5.27;1.97;;;;;;;3.21;75.17;101347.03;5018384;28;20544;-71
2021/04/12 06:17:28;;;;;;;4.10;1.60;;;;;;;3.22;75.82;101339.09;5035957;28;20167;-72
2021/04/12 06:20:36;;;;;;;3.53;1.43;;;;;;;3.32;75.58;101335.41;5033348;28;20620;-72
2021/04/12 06:23:38;;;;;;;3.17;1.50;;;;;;;3.37;74.60;101357.34;5035475;28;20195;-71
2021/04/12 06:26:35;;;;;;;4.33;1.70;;;;;;;3.33;75.94;101365.31;5035842;28;20533;-71
2021/04/12 06:29:15;;;;;;;5.17;1.77;;;;;;;3.34;76.19;101357.38;5034795;28;20199;-71
2021/04/12 06:32:09;;;;;;;2.83;1.50;;;;;;;3.35;75.93;101358.25;5034430;28;20203;-71
2021/04/12 06:34:57;;;;;;;4.17;1.70;;;;;;;3.35;76.06;101377.59;5034842;28;20171;-71
2021/04/12 06:37:43;;;;;;;2.67;1.60;;;;;;;3.38;76.48;101374.91;5034814;28;20179;-71
2021/04/12 06:40:46;;;;;;;3.67;1.70;;;;;;;3.38;75.53;101374.91;5035462;28;20635;-72
2021/04/12 06:43:30;;;;;;;6.43;1.73;;;;;;;3.43;76.21;101383.63;5035451;28;20628;-70
2021/04/12 06:46:22;;;;;;;4.83;2.00;;;;;;;3.44;75.62;101382.75;5035381;28;20212;-72
2021/04/12 06:49:09;;;;;;;4.57;1.57;;;;;;;3.48;76.56;101380.94;5034762;28;20221;-72
2021/04/12 06:52:05;;;;;;;3.97;1.87;;;;;;;3.61;74.63;101389.53;5035480;28;20239;-71
2021/04/12 06:54:53;;;;;;;5.43;1.60;;;;;;;3.66;74.65;101399.09;5035172;28;20191;-71
2021/04/12 06:57:24;;;;;;;4.20;1.83;;;;;;;3.74;74.63;101402.53;5034392;28;20346;-72
2021/04/12 07:00:22;;;;;;;2.60;1.60;;;;;;;3.77;74.99;101412.16;5035315;28;20186;-71
2021/04/12 07:03:07;;;;;;;3.30;1.50;;;;;;;3.80;75.35;101421.81;5033772;28;20164;-71
2021/04/12 07:05:41;;;;;;;5.37;1.50;;;;;;;3.51;74.86;101416.97;5033986;28;20192;-71
2021/04/12 07:08:21;;;;;;;2.20;1.30;;;;;;;3.81;74.45;101424.41;5034547;28;20171;-72
2021/04/12 07:11:12;;;;;;;1.90;1.60;;;;;;;4.00;72.25;101439.06;5034514;28;20675;-72
2021/04/12 07:14:08;;;;;;;4.40;1.47;;;;;;;3.82;72.66;101439.38;5033813;28;20502;-72
2021/04/12 07:17:01;;;;;;;6.87;1.40;;;;;;;3.78;72.95;101436.81;5035204;28;20268;-72
2021/04/12 07:19:38;;;;;;;2.17;1.37;;;;;;;3.77;74.24;101441.22;5034741;28;20176;-72
2021/04/12 07:22:33;;;;;;;2.90;1.60;;;;;;;3.71;73.65;101446.56;5034247;28;20237;-72
2021/04/12 07:25:34;;;;;;;3.90;1.40;;;;;;;3.61;73.26;101466.06;5016628;28;20172;-70
2021/04/12 07:28:22;;;;;;;3.40;1.50;;;;;;;3.58;74.59;101466.13;5033275;28;20178;-71
2021/04/12 07:31:05;;;;;;;6.70;1.80;;;;;;;3.81;74.25;101466.66;5033717;28;20564;-71
2021/04/12 07:34:06;;;;;;;3.67;1.27;;;;;;;3.72;73.74;101465.03;5034145;28;20164;-71
2021/04/12 07:37:16;;;;;;;7.00;1.50;;;;;;;3.42;74.80;101460.19;5016585;28;20182;-70
2021/04/12 07:40:06;;;;;;;3.93;1.40;;;;;;;3.57;75.40;101462.59;5033639;28;20199;-70
2021/04/12 07:42:45;;;;;;;3.90;1.53;;;;;;;3.41;75.42;101469.00;5034303;28;20247;-71
2021/04/12 07:45:54;;;;;;;6.73;1.80;;;;;;;3.69;75.02;101472.09;5032701;28;20180;-71
2021/04/12 07:48:57;;;;;;;3.70;1.47;;;;;;;3.70;73.79;101479.13;5034349;28;20157;-70
2021/04/12 07:51:57;;;;;;;2.80;1.43;;;;;;;3.69;75.24;101474.75;5033929;28;20270;-71
2021/04/12 07:54:41;;;;;;;4.33;1.37;;;;;;;3.71;74.00;101494.94;5034504;28;20233;-71
2021/04/12 07:57:43;;;;;;;3.50;1.50;;;;;;;3.54;74.36;101477.63;5034028;28;20180;-71
2021/04/12 08:00:39;;;;;;;2.80;1.17;;;;;;;3.65;73.63;101473.06;5032518;28;20263;-72
2021/04/12 08:03:41;;;;;;;6.63;1.30;;;;;;;3.82;73.21;101475.47;5033971;28;20504;-71
2021/04/12 08:06:40;;;;;;;2.57;1.47;;;;;;;3.95;72.92;101493.72;5033688;28;20283;-71
2021/04/12 08:09:23;;;;;;;4.53;1.40;;;;;;;4.13;72.16;101489.06;5032396;28;20171;-71
2021/04/12 08:12:18;;;;;;;5.23;1.67;;;;;;;4.22;71.57;101486.28;5032490;28;20282;-70
2021/04/12 08:15:08;;;;;;;2.80;1.20;;;;;;;4.13;71.40;101499.66;5032054;28;20191;-70
2021/04/12 08:17:52;;;;;;;4.43;1.33;;;;;;;4.18;71.78;101497.78;5033562;28;20160;-70
2021/04/12 08:20:59;;;;;;;3.23;1.40;;;;;;;4.45;69.26;101497.31;5033504;28;20213;-70
2021/04/12 08:23:50;;;;;;;3.37;1.23;;;;;;;4.69;70.31;101499.53;5003541;28;20188;-71
2021/04/12 08:26:44;;;;;;;9.80;1.90;;;;;;;4.76;68.62;101508.22;5031949;28;20266;-70
2021/04/12 08:29:37;;;;;;;3.97;1.57;;;;;;;5.12;67.25;101519.88;5032137;28;20247;-70
2021/04/12 08:32:02;;;;;;;4.87;1.40;;;;;;;5.40;65.40;101533.44;5033174;28;20200;-71
2021/04/12 08:35:02;;;;;;;3.43;1.10;;;;;;;5.31;66.09;101510.69;5033014;28;20172;-70
2021/04/12 08:37:54;;;;;;;3.00;1.30;;;;;;;5.10;67.30;101529.63;5033117;28;20195;-70
2021/04/12 08:40:58;;;;;;;3.30;1.10;;;;;;;5.07;66.99;101535.00;5033723;28;20176;-71
2021/04/12 08:43:44;;;;;;;5.40;1.30;;;;;;;5.00;67.22;101539.53;5038685;28;20191;-72
2021/04/12 08:46:47;;;;;;;2.80;1.40;;;;;;;4.97;67.88;101547.53;5033225;28;20659;-71
2021/04/12 08:49:45;;;;;;;1.63;1.20;;;;;;;5.01;67.98;101556.28;5032913;28;20176;-71
2021/04/12 08:52:18;;;;;;;5.63;2.00;;;;;;;5.34;67.23;101554.75;5031552;28;20188;-70
2021/04/12 08:55:15;;;;;;;2.80;1.30;;;;;;;5.72;65.39;101555.75;5031779;28;20625;-71
2021/04/12 08:58:05;;;;;;;4.03;1.53;;;;;;;5.90;65.85;101553.59;5033392;28;20243;-71
2021/04/12 09:00:52;;;;;;;4.33;1.20;;;;;;;5.83;64.14;101561.69;5033210;28;20206;-70
2021/04/12 09:03:40;;;;;;;7.10;1.50;;;;;;;5.97;63.84;101558.78;5031548;28;20174;-71
2021/04/12 09:06:38;;;;;;;1.83;0.97;;;;;;;5.79;62.95;101566.16;5031541;28;20234;-71
2021/04/12 09:09:25;;;;;;;3.73;1.07;;;;;;;5.55;63.68;101561.38;5031764;28;20157;-71
2021/04/12 09:12:28;;;;;;;1.83;1.00;;;;;;;5.76;63.54;101568.88;5033005;28;20247;-71
2021/04/12 09:15:26;;;;;;;2.33;1.30;;;;;;;5.58;62.49;101570.16;5032297;28;20195;-71
2021/04/12 09:18:36;;;;;;;1.97;0.87;;;;;;;5.54;63.68;101563.16;5033290;28;20157;-71
2021/04/12 09:21:26;;;;;;;3.17;1.37;;;;;;;5.11;65.15;101570.19;5031531;22;20342;-71
2021/04/12 09:24:12;;;;;;;2.93;1.17;;;;;;;5.87;64.30;101560.69;5031603;28;20220;-71
2021/04/12 09:27:42;;;;;;;2.80;1.47;;;;;;;5.64;62.82;101574.47;5031457;28;20200;-70
2021/04/12 09:30:35;;;;;;;3.30;0.90;;;;;;;5.90;63.27;101572.13;5013946;28;20180;-70
2021/04/12 09:33:24;;;;;;;3.07;0.90;;;;;;;5.98;63.43;101582.59;5029957;28;20220;-71
2021/04/12 09:36:18;;;;;;;1.57;0.80;;;;;;;7.06;58.42;101582.59;5016327;28;20565;-70
2021/04/12 09:39:08;;;;;;;6.60;2.77;;;;;;;7.44;56.49;101576.25;5012352;28;20165;-71
2021/04/12 09:42:29;;;;;;;2.10;0.90;;;;;;;6.43;59.21;101577.13;5013860;28;20224;-70
2021/04/12 09:45:07;;;;;;;4.93;1.23;;;;;;;6.46;61.03;101567.31;4991291;28;20216;-71
2021/04/12 09:47:50;;;;;;;1.97;1.03;;;;;;;5.83;62.32;101575.78;5011645;28;20224;-71
2021/04/12 09:50:37;;;;;;;2.57;0.93;;;;;;;6.65;60.15;101588.94;5012746;28;20626;-71
2021/04/12 09:53:44;;;;;;;4.27;1.60;;;;;;;7.11;59.62;101583.34;5013419;28;20671;-70
2021/04/12 09:56:21;;;;;;;2.23;1.00;;;;;;;7.36;57.66;101582.66;5015593;28;20174;-71
2021/04/12 09:59:24;;;;;;;2.30;1.13;;;;;;;7.21;58.38;101587.50;5015347;28;20199;-70
2021/04/12 10:02:04;;;;;;;3.13;1.23;;;;;;;7.63;56.87;101587.22;5016339;28;20623;-71
2021/04/12 10:05:11;;;;;;;1.73;0.80;;;;;;;7.58;56.66;101593.56;5015288;28;20283;-70
2021/04/12 10:07:58;;;;;;;3.83;1.30;;;;;;;7.46;54.87;101605.44;5008963;28;20197;-72
2021/04/12 10:10:50;;;;;;;4.87;1.43;;;;;;;7.27;55.35;101599.72;5015053;28;20661;-71
2021/04/12 10:13:29;;;;;;;2.67;1.00;;;;;;;6.98;57.47;101596.97;4994525;28;20189;-70
2021/04/12 10:16:08;;;;;;;4.53;0.90;;;;;;;6.02;59.67;101604.59;4998531;28;20168;-70
2021/04/12 10:18:42;;;;;;;10.00;0.80;;;;;;;6.06;61.03;101596.53;5014698;28;20204;-70
2021/04/12 10:21:18;;;;;;;4.33;1.10;;;;;;;6.25;58.90;101607.59;5014840;28;20208;-70
2021/04/12 10:24:23;;;;;;;6.40;0.90;;;;;;;5.93;59.92;101611.81;5015173;28;20171;-70
2021/04/12 10:27:00;;;;;;;1.50;0.70;;;;;;;6.46;56.95;101615.06;4999767;28;20220;-71
2021/04/12 10:29:51;;;;;;;2.57;0.73;;;;;;;6.35;57.03;101614.44;5014733;28;20223;-71
2021/04/12 10:32:21;;;;;;;2.23;0.90;;;;;;;6.14;56.79;101618.44;5015737;28;20193;-71
2021/04/12 10:34:49;;;;;;;3.80;0.90;;;;;;;6.07;56.36;101603.56;4997971;28;20708;-71
2021/04/12 10:37:26;;;;;;;0.80;0.57;;;;;;;6.28;56.59;101610.16;5014500;28;20205;-70
2021/04/12 10:40:03;;;;;;;1.53;0.70;;;;;;;6.74;54.45;101612.63;5016021;28;20218;-71
2021/04/12 10:42:37;;;;;;;1.50;0.90;;;;;;;6.73;55.38;101623.28;5014416;28;20212;-71
2021/04/12 10:45:15;;;;;;;2.43;0.80;;;;;;;7.00;55.35;101627.88;5014548;28;20162;-70
2021/04/12 10:47:59;;;;;;;2.13;0.67;;;;;;;7.32;53.08;101627.03;4998130;28;20192;-70
2021/04/12 10:50:35;;;;;;;2.57;0.90;;;;;;;7.29;53.82;101628.91;5014206;28;20627;-70
2021/04/12 10:53:19;;;;;;;1.93;0.67;;;;;;;7.01;52.39;101619.00;5014331;28;20220;-71
2021/04/12 10:55:54;;;;;;;1.70;0.90;;;;;;;7.22;51.38;101625.53;5014421;28;20181;-71
2021/04/12 10:58:47;;;;;;;2.43;0.80;;;;;;;7.55;51.64;101620.22;5014309;28;20167;-71
2021/04/12 11:01:42;;;;;;;2.90;1.20;;;;;;;7.59;50.30;101629.84;5014108;28;20197;-71
2021/04/12 11:04:19;;;;;;;3.07;0.90;;;;;;;7.04;52.59;101657.84;4997763;28;20270;-71
2021/04/12 11:07:06;;;;;;;1.73;0.70;;;;;;;6.90;52.53;101636.97;5014652;28;20194;-71
2021/04/12 11:09:42;;;;;;;4.60;0.90;;;;;;;6.87;54.11;101653.84;5014306;28;20643;-70
2021/04/12 11:12:29;;;;;;;2.90;1.00;;;;;;;7.14;53.93;101639.03;5014073;28;20561;-70
2021/04/12 11:15:12;;;;;;;2.23;0.80;;;;;;;8.26;51.56;101642.06;4997290;28;20657;-70
2021/04/12 11:17:44;;;;;;;3.60;0.90;;;;;;;9.08;49.27;101636.75;5013936;28;20700;-70
2021/04/12 11:20:13;;;;;;;1.53;0.90;;;;;;;9.91;44.63;101649.78;5014192;28;20247;-70
2021/04/12 11:22:45;;;;;;;2.63;0.90;;;;;;;9.78;45.09;101640.53;5013788;28;20576;-71
2021/04/12 11:25:36;;;;;;;5.97;1.03;;;;;;;9.21;46.89;101636.31;5014010;28;20187;-70
2021/04/12 11:28:29;;;;;;;4.73;0.90;;;;;;;8.89;45.73;101642.72;5015904;28;20263;-71
2021/04/12 11:31:23;;;;;;;12.17;3.90;;;;;;;8.25;47.83;101645.63;5011853;28;20215;-71
2021/04/12 11:34:16;;;;;;;8.97;3.77;;;;;;;8.05;48.58;101656.84;5014872;28;20248;-71
2021/04/12 11:36:50;;;;;;;3.33;0.97;;;;;;;7.80;50.98;101670.00;5013427;28;20161;-71
2021/04/12 11:39:19;;;;;;;1.27;0.70;;;;;;;8.12;50.59;101663.72;5013324;28;20195;-71
2021/04/12 11:42:07;;;;;;;3.03;0.80;;;;;;;8.90;48.26;101661.31;4996744;28;20294;-71
2021/04/12 11:44:38;;;;;;;3.87;1.27;;;;;;;9.59;46.58;101640.31;5013653;28;20169;-71
2021/04/12 11:47:28;;;;;;;4.20;1.40;;;;;;;9.44;46.32;101646.19;4996680;28;20295;-70
2021/04/12 11:50:30;;;;;;;2.07;1.03;;;;;;;8.93;47.78;101655.06;5013131;28;20208;-70
2021/04/12 11:53:14;;;;;;;3.50;1.20;;;;;;;8.64;48.99;101659.53;5014689;28;20180;-70
2021/04/12 11:55:58;;;;;;;3.73;1.30;;;;;;;8.21;48.05;101665.25;4996821;28;20173;-70
2021/04/12 11:58:31;;;;;;;15.33;6.87;;;;;;;8.60;47.32;101662.34;5012888;28;20202;-70
2021/04/12 12:01:14;;;;;;;51.83;29.03;;;;;;;8.39;48.43;101656.75;5013209;28;20201;-70
2021/04/12 12:03:39;;;;;;;18.67;8.23;;;;;;;8.25;48.21;101666.91;5013110;28;20179;-71
2021/04/12 12:06:15;;;;;;;4.03;1.43;;;;;;;8.15;48.14;101663.63;5014288;28;20200;-70
2021/04/12 12:09:06;;;;;;;19.83;10.53;;;;;;;8.99;45.83;101655.72;5013173;28;20540;-70
2021/04/12 12:11:33;;;;;;;7.20;1.97;;;;;;;10.01;43.37;101649.38;5014301;28;20549;-72
2021/04/12 12:14:04;;;;;;;4.33;1.13;;;;;;;11.11;39.56;101654.84;5013350;28;20198;-70
2021/04/12 12:16:42;;;;;;;5.57;2.57;;;;;;;11.95;37.58;101649.41;5013504;28;20248;-70
2021/04/12 12:19:36;;;;;;;3.23;1.03;;;;;;;11.57;38.65;101627.88;5013279;28;20179;-71
2021/04/12 12:22:07;;;;;;;3.57;1.23;;;;;;;11.05;40.75;101631.06;5013902;28;20223;-70
2021/04/12 12:24:45;;;;;;;3.37;0.90;;;;;;;9.86;40.99;101644.63;5014618;28;20196;-70
2021/04/12 12:27:28;;;;;;;3.60;1.03;;;;;;;9.83;41.64;101641.22;5013213;28;20208;-70
2021/04/12 12:30:17;;;;;;;3.83;1.10;;;;;;;10.50;40.76;101649.34;5015243;28;20177;-70
2021/04/12 12:32:59;;;;;;;2.33;1.00;;;;;;;11.84;38.93;101651.66;5012974;28;20246;-70
2021/04/12 12:35:33;;;;;;;4.80;0.90;;;;;;;9.55;43.50;101647.53;5012940;28;20685;-71
2021/04/12 12:38:27;;;;;;;3.80;0.70;;;;;;;11.57;40.03;101643.06;5013289;28;20188;-71
2021/04/12 12:40:55;;;;;;;3.80;1.00;;;;;;;11.98;37.22;101653.72;5013091;28;20204;-71
2021/04/12 12:43:32;;;;;;;4.20;1.70;;;;;;;12.53;35.77;101654.69;5013318;28;20284;-71
2021/04/12 12:46:23;;;;;;;3.00;0.90;;;;;;;11.67;36.37;101654.22;4998774;28;20197;-72
2021/04/12 12:48:56;;;;;;;2.50;0.80;;;;;;;10.83;37.65;101658.69;5015876;28;20187;-71
2021/04/12 12:51:25;;;;;;;2.73;0.90;;;;;;;12.71;32.92;101656.47;5012550;28;20197;-70
2021/04/12 12:53:57;;;;;;;2.83;0.90;;;;;;;12.69;33.26;101665.53;5012387;28;20247;-71
2021/04/12 12:56:27;;;;;;;1.87;0.83;;;;;;;13.82;31.08;101662.47;5013080;28;20239;-71
2021/04/12 12:59:06;;;;;;;1.97;1.00;;;;;;;14.04;31.31;101681.84;5012830;28;20553;-70